LFBH/LRH METAR and TAF weather

Enter ICAO airport designator
Station Type Date Time Source
LFBH METAR 2021/07/27 21:30 UTC NOAA

LFBH 272130Z AUTO 29012KT 9999 BKN018 BKN028 19/16 Q1015 NOSIG


Station Type Date Time Source
LFBH Decoded METAR 2021/07/27 21:30 UTC NOAA

La Rochelle, France (LFBH) 46-09N 001-09W 10M
Jul 27, 2021 - 05:30 PM EDT / 2021.07.27 2130 UTC
Wind: from the WNW (290 degrees) at 14 MPH (12 KT):0
Visibility: greater than 7 mile(s):0
Sky conditions: mostly cloudy
Temperature: 66 F (19 C)
Dew Point: 60 F (16 C)
Relative Humidity: 82%
Pressure (altimeter): 29.97 in. Hg (1015 hPa)
ob: LFBH 272130Z AUTO 29012KT 9999 BKN018 BKN028 19/16 Q1015 NOSIG
cycle: 21

Station Type Date Time Source
LFBH TAF 2021/07/27 18:21 UTC NOAA

TAF LFBH 271700Z 2718/2818 27010KT 9999 SCT025
TEMPO 2718/2721 -RA BKN013
TEMPO 2721/2809 BKN015 PROB30
TEMPO 2800/2806 -SHRA

Example: see airport list